Point Pleasant, PA (18950)

8:49 AM EDT on June 30, 2015 (GMT -0400)
Ockanickon Scout Reservation | | Change Station
CLOSE
Current Station
Personal Weather Station
Location: Pipersville, PA
Elevation: 460 ft
Nearby Weather Stations

Elev 460 ft 40.43 °N, 75.09 °W | Updated 4 minutes ago

Overcast
Overcast
69.0 °F
Feels Like 69.0 °F
N
0.0
Wind Variable Wind from North
Gusts 3.0 mph

Today
High -- | Low -- °F
--% Chance of Precip.
Yesterday
High -- | Low -- °F
Precip. -- in
5:33 AM 8:34 PM
Waxing Gibbous, 97% visible
Pressure 29.95 in
Visibility 10.0 miles
Clouds Mostly Cloudy 6000 ft
Overcast 7500 ft
Dew Point 67 °F
Humidity 93%
Rainfall in
Snow Depth Not available.
UV 1 out of 12
Pollen 1.50 out of 12
Air Quality Not available.
Flu Activity Sporadic
METAR KDYL 301154Z AUTO VRB04KT 10SM BKN060 OVC075 18/16 A2996 RMK AO2 SLP142 T01830161 10183 20156 51007

More Conditions Fewer Conditions

Pressure 29.95 in
Visibility 10.0 miles
Clouds Mostly Cloudy 6000 ft
Overcast 7500 ft
Dew Point 67 °F
Humidity 93%
Rainfall in
Snow Depth Not available.
UV 1 out of 12
Pollen 1.50 out of 12
Air Quality Not available.
Flu Activity Sporadic
METAR KDYL 301154Z AUTO VRB04KT 10SM BKN060 OVC075 18/16 A2996 RMK AO2 SLP142 T01830161 10183 20156 51007

More Conditions Fewer Conditions

10-Day Weather Forecast

×

Almanac

Astronomy

Jun. 30, 2015 Rise Set
Actual Time
Civil Twilight
Nautical Twilight
Astronomical Twilight
Moon
Length of Visible Light
Length of Day
Tomorrow will be .
, % of the Moon is Illuminated

Today's Extremes

State Highs State Lows

Community

WunderPhotos

Upload Photos

1,833,986 photos uploaded!

WunderBlogs® & News

Nearby

Air Quality

  Air Quality AQ Index Pollutant
Not available.

Snow Depth

Station Depth Elevation

Earthquake Activity

City Distance Mag. Time & Date
Minimum magnitude displayed is 2.5.

Coastal Water Temperatures

Place Temperature

Stations

Nearby Weather Stations

Station Location Temp. Windchill Dew Point Humidity Wind Precip. Elev Updated Type